Time;durP1;ratioP1;P1;durP2;ratioP2;P2;SDS_P1;SDS_P2;PMS_P1;PMS_P2;Temp;Humidity;BMP_temperature;BMP_pressure;BME280_temperature;BME280_humidity;BME280_pressure;Samples;Min_cycle;Max_cycle;Signal;HPM_P1;HPM_P2
2022/01/01 00:02:00;;;;;;;34.87;12.60;;;;;;;;;;4993762;28;20034;-74
2022/01/01 00:04:25;;;;;;;33.53;11.90;;;;;;;;;;4994527;28;20101;-73
2022/01/01 00:06:51;;;;;;;151.97;95.00;;;;;;;;;;4989169;28;20026;-73
2022/01/01 00:09:16;;;;;;;227.60;108.73;;;;;;;;;;4995400;28;20049;-73
2022/01/01 00:11:41;;;;;;;324.27;192.90;;;;;;;;;;4994855;28;20030;-73
2022/01/01 00:14:07;;;;;;;72.40;37.40;;;;;;;;;;4995021;28;20034;-73
2022/01/01 00:16:32;;;;;;;67.57;28.63;;;;;;;;;;4995255;28;20047;-73
2022/01/01 00:18:58;;;;;;;32.57;12.43;;;;;;;;;;4995413;28;20029;-73
2022/01/01 00:21:23;;;;;;;30.07;11.03;;;;;;;;;;4995483;28;20031;-73
2022/01/01 00:23:48;;;;;;;25.40;8.53;;;;;;;;;;4995234;28;20383;-74
2022/01/01 00:26:14;;;;;;;36.53;9.30;;;;;;;;;;5010132;28;20031;-74
2022/01/01 00:28:40;;;;;;;27.80;8.70;;;;;;;;;;4995008;28;20026;-73
2022/01/01 00:31:07;;;;;;;26.23;8.53;;;;;;;;;;4995126;28;20046;-73
2022/01/01 00:33:32;;;;;;;27.05;10.20;;;;;;;;;;4994991;28;20037;-73
2022/01/01 00:35:58;;;;;;;29.53;11.23;;;;;;;;;;4995210;28;20030;-73
2022/01/01 00:38:24;;;;;;;28.10;11.50;;;;;;;;;;4994900;28;20117;-73
2022/01/01 00:40:49;;;;;;;23.60;10.93;;;;;;;;;;5009617;28;20033;-74
2022/01/01 00:43:14;;;;;;;25.10;12.50;;;;;;;;;;4994643;28;20030;-73
2022/01/01 00:45:40;;;;;;;32.00;13.17;;;;;;;;;;4994708;28;20060;-71
2022/01/01 00:48:05;;;;;;;24.80;9.83;;;;;;;;;;4993057;28;20076;-71
2022/01/01 00:50:31;;;;;;;28.60;12.17;;;;;;;;;;4994518;28;20038;-74
2022/01/01 00:52:58;;;;;;;38.03;9.80;;;;;;;;;;4994701;28;20375;-71
2022/01/01 00:55:24;;;;;;;24.30;9.02;;;;;;;;;;4991633;28;20022;-71
2022/01/01 00:57:49;;;;;;;26.83;10.20;;;;;;;;;;4986201;28;20379;-73
2022/01/01 01:00:14;;;;;;;20.47;8.90;;;;;;;;;;4994339;28;20077;-74
2022/01/01 01:02:40;;;;;;;20.00;9.23;;;;;;;;;;4978487;28;20042;-74
2022/01/01 01:05:06;;;;;;;17.50;7.70;;;;;;;;;;4980710;28;20391;-74
2022/01/01 01:07:31;;;;;;;22.17;8.43;;;;;;;;;;4977878;28;20030;-74
2022/01/01 01:09:57;;;;;;;27.17;8.50;;;;;;;;;;4993449;28;20037;-73
2022/01/01 01:12:26;;;;;;;29.07;8.30;;;;;;;;;;4976417;28;20045;-73
2022/01/01 01:14:52;;;;;;;23.92;8.07;;;;;;;;;;4984671;28;20035;-73
2022/01/01 01:17:18;;;;;;;20.05;7.63;;;;;;;;;;4994163;28;20058;-71
2022/01/01 01:19:43;;;;;;;18.63;8.40;;;;;;;;;;4994036;28;20116;-71
2022/01/01 01:22:09;;;;;;;26.97;8.50;;;;;;;;;;4993789;28;20562;-71
2022/01/01 01:24:35;;;;;;;21.87;7.80;;;;;;;;;;4993715;28;20056;-71
2022/01/01 01:27:03;;;;;;;25.38;8.50;;;;;;;;;;5008889;28;20026;-71
2022/01/01 01:29:30;;;;;;;21.90;7.95;;;;;;;;;;4992035;28;20030;-71
2022/01/01 01:31:56;;;;;;;17.23;7.55;;;;;;;;;;4992521;28;20110;-73
2022/01/01 01:34:22;;;;;;;21.43;7.47;;;;;;;;;;4976577;28;20117;-75
2022/01/01 01:36:47;;;;;;;14.80;7.27;;;;;;;;;;4992777;28;20045;-73
2022/01/01 01:39:13;;;;;;;23.87;7.97;;;;;;;;;;4993670;28;20090;-73
2022/01/01 01:41:41;;;;;;;28.23;8.33;;;;;;;;;;5008995;28;20084;-73
2022/01/01 01:44:36;;;;;;;15.88;7.95;;;;;;;;;;4992528;28;20034;-70
2022/01/01 01:47:04;;;;;;;27.35;7.00;;;;;;;;;;4988720;28;20042;-70
2022/01/01 01:49:30;;;;;;;25.63;8.85;;;;;;;;;;4993605;28;20113;-70
2022/01/01 01:51:56;;;;;;;20.50;7.83;;;;;;;;;;5005006;28;20122;-70
2022/01/01 01:54:22;;;;;;;24.13;7.45;;;;;;;;;;5008259;28;20049;-71
2022/01/01 01:56:47;;;;;;;22.53;8.23;;;;;;;;;;4993477;28;20043;-70
2022/01/01 01:59:14;;;;;;;21.23;8.60;;;;;;;;;;5008755;28;20041;-70
2022/01/01 02:01:39;;;;;;;31.17;9.10;;;;;;;;;;5008522;28;20103;-71
2022/01/01 02:04:05;;;;;;;17.17;7.37;;;;;;;;;;4992048;28;20426;-70
2022/01/01 02:06:30;;;;;;;18.47;6.43;;;;;;;;;;4983279;28;20080;-71
2022/01/01 02:08:56;;;;;;;28.67;8.07;;;;;;;;;;4990583;28;20178;-70
2022/01/01 02:11:23;;;;;;;24.97;7.93;;;;;;;;;;4992108;28;20043;-71
2022/01/01 02:14:15;;;;;;;21.70;7.88;;;;;;;;;;4993163;28;20402;-70
2022/01/01 02:17:17;;;;;;;22.45;9.98;;;;;;;;;;4984013;28;20070;-70
2022/01/01 02:19:27;;;;;;;26.17;8.20;;;;;;;;;;4961712;28;20403;-71
2022/01/01 02:21:56;;;;;;;26.30;9.02;;;;;;;;;;4992259;28;20027;-71
2022/01/01 02:24:22;;;;;;;20.52;7.65;;;;;;;;;;4986325;28;20050;-71
2022/01/01 02:26:47;;;;;;;27.90;9.20;;;;;;;;;;4992200;28;20084;-70
2022/01/01 02:29:13;;;;;;;19.50;8.20;;;;;;;;;;4993350;28;20049;-70
2022/01/01 02:31:38;;;;;;;22.33;8.40;;;;;;;;;;5008394;28;20125;-70
2022/01/01 02:34:08;;;;;;;24.33;7.60;;;;;;;;;;5008329;28;20061;-71
2022/01/01 02:36:40;;;;;;;18.20;7.85;;;;;;;;;;4992051;28;20034;-70
2022/01/01 02:39:13;;;;;;;21.00;7.72;;;;;;;;;;4988527;28;20201;-70
2022/01/01 02:41:39;;;;;;;23.70;8.60;;;;;;;;;;4991903;28;20073;-71
2022/01/01 02:44:06;;;;;;;21.80;8.90;;;;;;;;;;4990053;28;20050;-70
2022/01/01 02:46:32;;;;;;;21.33;8.57;;;;;;;;;;4992997;28;20110;-70
2022/01/01 02:48:58;;;;;;;18.55;7.07;;;;;;;;;;5008243;28;20094;-70
2022/01/01 02:51:24;;;;;;;19.30;8.70;;;;;;;;;;5007076;28;20194;-70
2022/01/01 02:53:49;;;;;;;22.93;9.30;;;;;;;;;;4991926;28;20034;-70
2022/01/01 02:56:14;;;;;;;21.17;7.83;;;;;;;;;;4992648;28;20122;-70
2022/01/01 02:58:41;;;;;;;32.87;8.30;;;;;;;;;;4993137;28;20030;-70
2022/01/01 03:01:06;;;;;;;24.95;8.25;;;;;;;;;;4991855;28;20109;-70
2022/01/01 03:03:31;;;;;;;24.27;7.07;;;;;;;;;;4992892;28;20077;-71
2022/01/01 03:05:57;;;;;;;23.93;8.37;;;;;;;;;;4993866;28;20045;-72
2022/01/01 03:08:22;;;;;;;22.73;8.60;;;;;;;;;;4996472;28;20038;-71
2022/01/01 03:10:49;;;;;;;26.63;7.73;;;;;;;;;;4994427;28;20038;-70
2022/01/01 03:13:15;;;;;;;29.13;7.95;;;;;;;;;;4995563;28;20038;-70
2022/01/01 03:15:41;;;;;;;27.40;8.77;;;;;;;;;;5010720;28;20038;-73
2022/01/01 03:18:06;;;;;;;17.63;8.83;;;;;;;;;;4993898;28;20053;-73
2022/01/01 03:20:31;;;;;;;23.93;7.10;;;;;;;;;;4996189;28;20038;-73
2022/01/01 03:22:57;;;;;;;23.77;7.60;;;;;;;;;;4996118;28;20410;-73
2022/01/01 03:25:22;;;;;;;24.47;8.17;;;;;;;;;;4995006;28;20038;-73
2022/01/01 03:27:48;;;;;;;28.07;7.73;;;;;;;;;;4995979;28;20039;-70
2022/01/01 03:30:13;;;;;;;21.57;7.23;;;;;;;;;;4995872;28;20037;-70
2022/01/01 03:32:38;;;;;;;24.27;7.23;;;;;;;;;;4996020;28;20044;-70
2022/01/01 03:35:04;;;;;;;20.83;7.03;;;;;;;;;;4994045;28;20116;-70
2022/01/01 03:37:30;;;;;;;23.17;7.03;;;;;;;;;;4996152;28;20027;-71
2022/01/01 03:39:55;;;;;;;17.23;6.83;;;;;;;;;;4994717;28;20463;-70
2022/01/01 03:42:20;;;;;;;22.27;7.73;;;;;;;;;;4995972;28;20038;-71
2022/01/01 03:44:46;;;;;;;23.07;6.83;;;;;;;;;;4995802;28;20041;-70
2022/01/01 03:47:11;;;;;;;23.43;6.70;;;;;;;;;;4996046;28;20064;-70
2022/01/01 03:49:37;;;;;;;29.60;7.13;;;;;;;;;;4995522;28;20038;-70
2022/01/01 03:52:03;;;;;;;21.08;6.80;;;;;;;;;;5001664;28;20422;-72
2022/01/01 03:54:29;;;;;;;27.40;7.87;;;;;;;;;;4992975;28;20034;-73
2022/01/01 03:56:54;;;;;;;17.53;6.80;;;;;;;;;;4995437;28;20031;-71
2022/01/01 03:59:20;;;;;;;27.77;7.97;;;;;;;;;;4995577;28;20026;-71
2022/01/01 04:01:46;;;;;;;23.17;6.77;;;;;;;;;;4994547;28;20092;-70
2022/01/01 04:04:11;;;;;;;21.00;6.90;;;;;;;;;;4977729;28;20038;-75
2022/01/01 04:06:37;;;;;;;25.93;6.97;;;;;;;;;;4980665;28;20026;-73
2022/01/01 04:09:02;;;;;;;22.00;6.83;;;;;;;;;;4993033;28;20390;-74
2022/01/01 04:11:28;;;;;;;20.17;7.10;;;;;;;;;;5002198;28;20056;-73
2022/01/01 04:13:53;;;;;;;20.37;6.27;;;;;;;;;;5010110;28;20112;-73
2022/01/01 04:16:19;;;;;;;16.63;6.63;;;;;;;;;;4992804;28;20030;-73
2022/01/01 04:18:45;;;;;;;16.23;5.63;;;;;;;;;;4995337;28;20470;-70
2022/01/01 04:21:11;;;;;;;18.08;5.88;;;;;;;;;;5010172;28;20037;-70
2022/01/01 04:23:38;;;;;;;25.50;6.33;;;;;;;;;;4994591;28;20137;-70
2022/01/01 04:26:05;;;;;;;23.10;6.95;;;;;;;;;;4995145;28;20323;-70
2022/01/01 04:28:30;;;;;;;18.25;5.82;;;;;;;;;;5008604;28;20035;-70
2022/01/01 04:30:56;;;;;;;15.63;6.87;;;;;;;;;;4995218;28;20038;-73
2022/01/01 04:33:21;;;;;;;17.00;5.77;;;;;;;;;;4993045;28;20426;-73
2022/01/01 04:35:46;;;;;;;21.30;6.17;;;;;;;;;;4994904;28;20371;-74
2022/01/01 04:38:31;;;;;;;15.23;5.50;;;;;;;;;;4993189;28;20033;-73
2022/01/01 04:40:56;;;;;;;14.63;6.03;;;;;;;;;;4994733;28;20042;-73
2022/01/01 04:43:22;;;;;;;20.50;6.10;;;;;;;;;;4994948;28;20038;-70
2022/01/01 04:45:47;;;;;;;23.00;7.43;;;;;;;;;;4994503;28;20479;-70
2022/01/01 04:48:13;;;;;;;27.37;7.60;;;;;;;;;;4994370;28;20030;-70
2022/01/01 04:50:38;;;;;;;18.43;7.10;;;;;;;;;;4994210;28;20038;-71
2022/01/01 04:53:04;;;;;;;16.40;6.70;;;;;;;;;;4992448;28;20046;-70
2022/01/01 04:55:29;;;;;;;24.07;6.70;;;;;;;;;;4994408;28;20034;-70
2022/01/01 04:57:54;;;;;;;16.97;6.23;;;;;;;;;;4994482;28;20028;-70
2022/01/01 05:00:20;;;;;;;19.33;6.73;;;;;;;;;;4994624;28;20038;-71
2022/01/01 05:02:45;;;;;;;27.20;5.87;;;;;;;;;;4994592;28;20049;-70
2022/01/01 05:05:11;;;;;;;18.20;6.10;;;;;;;;;;4994368;28;20047;-70
2022/01/01 05:07:36;;;;;;;18.10;6.83;;;;;;;;;;4989328;28;20041;-70
2022/01/01 05:10:02;;;;;;;25.27;6.77;;;;;;;;;;5009554;28;20097;-70
2022/01/01 05:12:27;;;;;;;21.83;6.00;;;;;;;;;;4993176;28;20076;-71
2022/01/01 05:14:53;;;;;;;16.60;7.43;;;;;;;;;;4994331;28;20037;-70
2022/01/01 05:17:18;;;;;;;19.07;6.50;;;;;;;;;;4994148;28;20054;-70
2022/01/01 05:19:44;;;;;;;23.63;6.03;;;;;;;;;;4993952;28;20577;-70
2022/01/01 05:22:09;;;;;;;23.60;7.63;;;;;;;;;;4994185;28;20038;-70
2022/01/01 05:24:35;;;;;;;15.93;7.10;;;;;;;;;;4993664;28;20060;-71
2022/01/01 05:27:00;;;;;;;16.73;5.40;;;;;;;;;;5009378;28;20026;-71
2022/01/01 05:29:26;;;;;;;18.97;6.10;;;;;;;;;;4992839;28;20471;-71
2022/01/01 05:31:51;;;;;;;18.73;5.90;;;;;;;;;;4994069;28;20471;-70
2022/01/01 05:34:17;;;;;;;11.83;5.10;;;;;;;;;;4994006;28;20034;-70
2022/01/01 05:36:42;;;;;;;13.53;5.43;;;;;;;;;;4993696;28;20030;-70
2022/01/01 05:39:08;;;;;;;16.97;5.87;;;;;;;;;;4991415;28;20033;-71
2022/01/01 05:41:34;;;;;;;13.88;5.30;;;;;;;;;;4993742;28;20018;-70
2022/01/01 05:43:59;;;;;;;22.30;5.13;;;;;;;;;;5008564;28;20034;-70
2022/01/01 05:46:25;;;;;;;19.80;5.90;;;;;;;;;;4993858;28;20037;-71
2022/01/01 05:48:50;;;;;;;17.60;6.23;;;;;;;;;;4993890;28;20443;-70
2022/01/01 05:51:16;;;;;;;17.47;5.53;;;;;;;;;;4993830;28;20092;-70
2022/01/01 05:53:41;;;;;;;21.13;6.90;;;;;;;;;;4993647;28;20034;-70
2022/01/01 05:56:07;;;;;;;14.17;5.07;;;;;;;;;;4993920;28;20039;-71
2022/01/01 05:58:32;;;;;;;18.83;5.07;;;;;;;;;;4993603;28;20031;-71
2022/01/01 06:00:57;;;;;;;23.57;4.90;;;;;;;;;;4993421;28;20089;-73
2022/01/01 06:03:23;;;;;;;17.53;5.27;;;;;;;;;;4992690;28;20046;-73
2022/01/01 06:05:51;;;;;;;17.07;5.27;;;;;;;;;;4990963;28;20027;-73
2022/01/01 06:08:17;;;;;;;15.38;4.25;;;;;;;;;;4992671;28;20087;-73
2022/01/01 06:10:43;;;;;;;18.38;6.22;;;;;;;;;;5008748;28;20122;-73
2022/01/01 06:13:08;;;;;;;22.73;6.03;;;;;;;;;;4993241;28;20120;-70
2022/01/01 06:15:34;;;;;;;15.97;4.67;;;;;;;;;;4993619;28;20487;-70
2022/01/01 06:17:59;;;;;;;12.83;5.00;;;;;;;;;;4993466;28;20037;-70
2022/01/01 06:20:25;;;;;;;16.00;4.63;;;;;;;;;;4993342;28;20503;-70
2022/01/01 06:22:50;;;;;;;20.57;5.53;;;;;;;;;;4991135;28;20129;-70
2022/01/01 06:25:15;;;;;;;17.70;5.80;;;;;;;;;;4993637;28;20030;-70
2022/01/01 06:27:41;;;;;;;26.67;5.73;;;;;;;;;;4993276;28;20125;-70
2022/01/01 06:30:07;;;;;;;12.70;4.50;;;;;;;;;;5008328;28;20029;-70
2022/01/01 06:32:32;;;;;;;14.50;4.73;;;;;;;;;;4989595;28;20486;-71
2022/01/01 06:34:59;;;;;;;;;;;;;;;;;;4993385;28;20058;-70
2022/01/01 06:37:25;;;;;;;11.25;3.90;;;;;;;;;;4993469;28;20270;-71
2022/01/01 06:39:50;;;;;;;13.63;4.80;;;;;;;;;;4995245;28;20066;-70
2022/01/01 06:42:15;;;;;;;19.93;4.40;;;;;;;;;;4996942;28;20085;-70
2022/01/01 06:44:42;;;;;;;10.50;3.47;;;;;;;;;;4996977;28;20030;-71
2022/01/01 06:47:08;;;;;;;12.50;4.07;;;;;;;;;;5012177;28;20027;-70
2022/01/01 06:49:33;;;;;;;14.27;5.63;;;;;;;;;;4997072;28;20042;-71
2022/01/01 06:51:59;;;;;;;11.80;3.97;;;;;;;;;;4993443;28;20117;-71
2022/01/01 06:54:24;;;;;;;16.73;4.63;;;;;;;;;;4993884;28;20034;-72
2022/01/01 06:56:50;;;;;;;11.40;3.37;;;;;;;;;;4992601;28;20085;-71
2022/01/01 06:59:15;;;;;;;12.90;3.70;;;;;;;;;;4995980;28;20081;-70
2022/01/01 07:01:40;;;;;;;10.37;3.63;;;;;;;;;;4996263;28;20030;-70
2022/01/01 07:04:06;;;;;;;12.70;3.80;;;;;;;;;;4996506;28;20088;-70
2022/01/01 07:06:33;;;;;;;10.60;3.60;;;;;;;;;;4985853;28;20023;-74
2022/01/01 07:08:59;;;;;;;10.93;3.83;;;;;;;;;;4978693;28;20442;-73
2022/01/01 07:11:24;;;;;;;14.87;3.70;;;;;;;;;;5010702;28;20042;-74
2022/01/01 07:13:50;;;;;;;10.80;3.30;;;;;;;;;;4995428;28;20029;-72
2022/01/01 07:16:15;;;;;;;13.87;4.27;;;;;;;;;;4996179;28;20041;-73
2022/01/01 07:18:41;;;;;;;15.00;4.70;;;;;;;;;;4993972;28;20042;-72
2022/01/01 07:21:06;;;;;;;17.10;4.07;;;;;;;;;;4996064;28;20029;-73
2022/01/01 07:23:31;;;;;;;12.27;4.53;;;;;;;;;;4996186;28;20160;-69
2022/01/01 07:25:57;;;;;;;10.83;3.77;;;;;;;;;;4996093;28;20097;-71
2022/01/01 07:28:22;;;;;;;12.83;3.13;;;;;;;;;;4995039;28;20030;-71
2022/01/01 07:30:48;;;;;;;19.07;4.00;;;;;;;;;;4996300;28;20041;-73
2022/01/01 07:33:14;;;;;;;24.80;5.07;;;;;;;;;;4996285;28;20479;-72
2022/01/01 07:35:40;;;;;;;15.25;3.90;;;;;;;;;;5010234;28;20077;-72
2022/01/01 07:38:06;;;;;;;12.88;4.28;;;;;;;;;;4995199;28;20046;-73
2022/01/01 07:40:34;;;;;;;21.80;5.37;;;;;;;;;;4994939;28;20043;-72
2022/01/01 07:43:10;;;;;;;20.02;4.28;;;;;;;;;;4987710;28;20089;-73
2022/01/01 07:45:35;;;;;;;20.73;4.05;;;;;;;;;;5011009;28;20439;-73
2022/01/01 07:48:01;;;;;;;16.23;4.10;;;;;;;;;;4995762;28;20042;-73
2022/01/01 07:50:26;;;;;;;13.53;4.67;;;;;;;;;;4994714;28;20018;-72
2022/01/01 07:52:51;;;;;;;25.97;4.97;;;;;;;;;;4995373;28;20169;-73
2022/01/01 07:55:17;;;;;;;11.17;3.17;;;;;;;;;;4994180;28;20448;-71
2022/01/01 07:57:42;;;;;;;12.10;4.17;;;;;;;;;;4995717;28;20037;-72
2022/01/01 08:00:08;;;;;;;20.03;4.80;;;;;;;;;;4995624;28;20042;-72
2022/01/01 08:02:45;;;;;;;12.73;3.57;;;;;;;;;;5010779;28;20039;-70
2022/01/01 08:05:11;;;;;;;20.85;4.65;;;;;;;;;;4995526;28;20618;-72
2022/01/01 08:07:36;;;;;;;13.23;3.92;;;;;;;;;;4981371;28;20073;-72
2022/01/01 08:10:03;;;;;;;16.27;3.83;;;;;;;;;;4995426;28;20128;-73
2022/01/01 08:12:29;;;;;;;15.20;4.95;;;;;;;;;;4995252;28;20042;-72
2022/01/01 08:14:57;;;;;;;13.13;3.97;;;;;;;;;;4995349;28;20037;-72
2022/01/01 08:17:23;;;;;;;18.20;4.47;;;;;;;;;;4993942;28;20018;-72
2022/01/01 08:19:48;;;;;;;18.77;4.32;;;;;;;;;;4995460;28;20035;-72
2022/01/01 08:22:14;;;;;;;18.03;3.93;;;;;;;;;;4995038;28;20044;-72
2022/01/01 08:24:40;;;;;;;13.68;3.80;;;;;;;;;;4995255;28;20101;-73
2022/01/01 08:27:06;;;;;;;22.05;5.18;;;;;;;;;;4992352;28;20479;-72
2022/01/01 08:29:32;;;;;;;21.77;4.80;;;;;;;;;;4995040;28;20049;-72
2022/01/01 08:31:57;;;;;;;11.10;4.17;;;;;;;;;;5010131;28;20068;-73
2022/01/01 08:34:23;;;;;;;16.77;4.00;;;;;;;;;;4995188;28;20034;-74
2022/01/01 08:36:49;;;;;;;19.38;3.72;;;;;;;;;;4995090;28;20042;-74
2022/01/01 08:39:15;;;;;;;16.00;4.23;;;;;;;;;;4995144;28;20131;-74
2022/01/01 08:41:41;;;;;;;10.35;4.47;;;;;;;;;;4993487;28;20034;-71
2022/01/01 08:44:06;;;;;;;15.75;3.85;;;;;;;;;;5010057;28;20042;-71
2022/01/01 08:46:32;;;;;;;24.10;3.87;;;;;;;;;;4994508;28;20498;-72
2022/01/01 08:48:57;;;;;;;12.93;4.80;;;;;;;;;;4994973;28;20041;-70
2022/01/01 08:51:23;;;;;;;15.70;4.27;;;;;;;;;;4994467;28;20044;-71
2022/01/01 08:53:49;;;;;;;9.10;3.30;;;;;;;;;;4993592;28;20033;-72
2022/01/01 08:56:16;;;;;;;14.20;4.10;;;;;;;;;;4994721;28;20042;-71
2022/01/01 08:58:41;;;;;;;;;;;;;;;;;;4994737;28;20060;-71
2022/01/01 09:01:07;;;;;;;13.13;3.60;;;;;;;;;;4994726;28;19960;-71
2022/01/01 09:03:36;;;;;;;22.15;4.75;;;;;;;;;;4992821;28;20049;-71
2022/01/01 09:06:03;;;;;;;12.18;3.58;;;;;;;;;;5005788;28;20467;-71
2022/01/01 09:08:29;;;;;;;13.07;4.40;;;;;;;;;;4990858;28;20443;-71
2022/01/01 09:10:55;;;;;;;14.93;4.10;;;;;;;;;;4992660;28;20103;-71
2022/01/01 09:13:20;;;;;;;17.27;4.03;;;;;;;;;;4994481;28;20050;-71
2022/01/01 09:15:45;;;;;;;14.73;4.10;;;;;;;;;;4994102;28;20019;-71
2022/01/01 09:18:11;;;;;;;15.53;4.67;;;;;;;;;;5009171;28;20100;-71
2022/01/01 09:20:36;;;;;;;15.27;4.53;;;;;;;;;;4992506;28;20434;-73
2022/01/01 09:23:02;;;;;;;22.17;4.90;;;;;;;;;;4990975;28;20038;-74
2022/01/01 09:25:27;;;;;;;19.33;4.07;;;;;;;;;;4993156;28;20038;-73
2022/01/01 09:27:52;;;;;;;15.27;3.77;;;;;;;;;;4993725;28;20038;-73
2022/01/01 09:30:19;;;;;;;24.27;4.40;;;;;;;;;;4990031;28;20118;-74
2022/01/01 09:32:44;;;;;;;20.48;4.53;;;;;;;;;;4988950;28;21799;-74
2022/01/01 09:35:11;;;;;;;23.17;4.47;;;;;;;;;;4981421;28;20113;-74
2022/01/01 09:37:36;;;;;;;15.70;4.55;;;;;;;;;;4991509;28;20049;-74
2022/01/01 09:40:03;;;;;;;20.70;5.37;;;;;;;;;;4984072;28;20459;-74
2022/01/01 09:42:30;;;;;;;16.35;3.80;;;;;;;;;;4985841;28;20555;-75
2022/01/01 09:44:57;;;;;;;31.77;4.97;;;;;;;;;;5004680;28;20106;-70
2022/01/01 09:47:22;;;;;;;17.50;4.50;;;;;;;;;;4993095;28;20483;-71
2022/01/01 09:49:48;;;;;;;23.60;4.60;;;;;;;;;;5008779;28;20113;-72
2022/01/01 09:52:15;;;;;;;27.93;5.60;;;;;;;;;;5002377;28;20395;-70
2022/01/01 09:54:40;;;;;;;;;;;;;;;;;;4994137;28;20475;-71
2022/01/01 09:57:06;;;;;;;18.25;4.55;;;;;;;;;;4987315;28;19925;-70
2022/01/01 09:59:32;;;;;;;21.57;4.97;;;;;;;;;;4991164;28;20514;-70
2022/01/01 10:01:57;;;;;;;27.07;5.03;;;;;;;;;;4993617;28;20113;-70
2022/01/01 10:04:23;;;;;;;22.53;4.73;;;;;;;;;;4992099;28;20073;-70
2022/01/01 10:07:05;;;;;;;31.30;6.17;;;;;;;;;;4985120;28;20029;-70
2022/01/01 10:09:34;;;;;;;26.27;6.60;;;;;;;;;;4976498;28;20041;-77
2022/01/01 10:12:01;;;;;;;20.83;4.57;;;;;;;;;;4987498;28;20034;-74
2022/01/01 10:14:46;;;;;;;20.10;4.70;;;;;;;;;;5008802;28;20042;-74
2022/01/01 10:17:15;;;;;;;30.15;6.68;;;;;;;;;;5001945;28;20038;-73
2022/01/01 10:19:41;;;;;;;20.02;4.93;;;;;;;;;;4997566;28;20029;-74
2022/01/01 10:22:11;;;;;;;23.27;8.57;;;;;;;;;;4995608;28;20043;-74
2022/01/01 10:27:45;;;;;;;28.35;7.03;;;;;;;;;;4987996;28;20580;-74
2022/01/01 10:30:20;;;;;;;26.35;5.22;;;;;;;;;;4979303;28;20038;-75
2022/01/01 10:33:01;;;;;;;27.77;5.35;;;;;;;;;;4985020;28;20474;-74
2022/01/01 10:35:28;;;;;;;37.47;6.95;;;;;;;;;;4996738;28;20034;-74
2022/01/01 10:37:54;;;;;;;21.20;5.65;;;;;;;;;;5003265;28;20546;-74
2022/01/01 10:40:27;;;;;;;32.53;5.43;;;;;;;;;;4977497;28;20035;-74
2022/01/01 10:42:53;;;;;;;27.15;5.93;;;;;;;;;;4985466;28;20030;-73
2022/01/01 10:45:32;;;;;;;23.43;5.33;;;;;;;;;;4986070;28;20427;-73
2022/01/01 10:48:24;;;;;;;20.45;5.85;;;;;;;;;;5010415;28;20046;-73
2022/01/01 10:50:51;;;;;;;29.42;5.38;;;;;;;;;;4995339;28;20030;-74
2022/01/01 10:53:27;;;;;;;26.38;5.55;;;;;;;;;;5011988;28;20046;-74
2022/01/01 10:55:58;;;;;;;22.23;5.43;;;;;;;;;;4996712;28;20105;-73
2022/01/01 10:58:34;;;;;;;18.52;5.22;;;;;;;;;;4993651;28;20042;-74
2022/01/01 11:01:07;;;;;;;23.88;5.25;;;;;;;;;;5008323;28;20101;-74
2022/01/01 11:03:41;;;;;;;19.80;5.78;;;;;;;;;;4981463;28;20059;-74
2022/01/01 11:06:15;;;;;;;41.03;7.47;;;;;;;;;;4977262;28;20034;-74
2022/01/01 11:08:43;;;;;;;22.30;5.57;;;;;;;;;;4991785;28;20030;-74
2022/01/01 11:11:10;;;;;;;27.45;5.25;;;;;;;;;;5001778;28;20077;-77
2022/01/01 11:13:36;;;;;;;19.75;5.07;;;;;;;;;;5002801;28;20035;-74
2022/01/01 11:16:04;;;;;;;33.00;6.78;;;;;;;;;;4988591;28;20042;-74
2022/01/01 11:18:29;;;;;;;23.48;6.57;;;;;;;;;;4991036;28;20034;-74
2022/01/01 11:20:56;;;;;;;32.27;7.10;;;;;;;;;;4992439;28;20045;-71
2022/01/01 11:23:22;;;;;;;29.38;7.05;;;;;;;;;;4998119;28;20487;-71
2022/01/01 11:25:48;;;;;;;27.63;5.50;;;;;;;;;;4966340;28;20029;-74
2022/01/01 11:28:15;;;;;;;15.47;4.57;;;;;;;;;;4994758;28;20039;-74
2022/01/01 11:30:51;;;;;;;25.25;5.35;;;;;;;;;;5004906;28;20042;-74
2022/01/01 11:33:19;;;;;;;24.23;7.70;;;;;;;;;;5008813;28;20043;-74
2022/01/01 11:35:51;;;;;;;19.88;6.00;;;;;;;;;;4985538;28;20117;-74
2022/01/01 11:38:17;;;;;;;18.90;4.78;;;;;;;;;;4993560;28;20058;-74
2022/01/01 11:41:09;;;;;;;34.00;6.25;;;;;;;;;;5002321;28;20074;-74
2022/01/01 11:43:46;;;;;;;32.22;6.18;;;;;;;;;;5005416;28;20486;-74
2022/01/01 11:46:16;;;;;;;16.48;4.53;;;;;;;;;;4981578;28;20114;-73
2022/01/01 11:48:55;;;;;;;29.75;5.45;;;;;;;;;;4987774;28;20387;-74
2022/01/01 11:51:32;;;;;;;25.35;6.03;;;;;;;;;;4992319;28;20048;-74
2022/01/01 11:54:07;;;;;;;23.15;5.78;;;;;;;;;;4973649;28;20380;-74
2022/01/01 11:56:51;;;;;;;29.33;7.03;;;;;;;;;;4984651;28;20030;-74
2022/01/01 11:59:37;;;;;;;25.42;5.63;;;;;;;;;;4978985;28;20092;-76
2022/01/01 12:02:20;;;;;;;35.00;6.15;;;;;;;;;;4982643;28;20043;-74
2022/01/01 12:04:47;;;;;;;31.17;6.10;;;;;;;;;;4985452;28;20050;-74
2022/01/01 12:07:18;;;;;;;23.75;5.97;;;;;;;;;;4988547;28;20046;-74
2022/01/01 12:09:48;;;;;;;29.00;6.30;;;;;;;;;;4971781;28;20026;-74
2022/01/01 12:12:14;;;;;;;26.77;5.80;;;;;;;;;;4981258;28;20717;-74
2022/01/01 12:14:41;;;;;;;38.28;6.60;;;;;;;;;;4999286;28;20058;-74
2022/01/01 12:17:06;;;;;;;27.70;6.13;;;;;;;;;;4974978;28;20053;-75
2022/01/01 12:19:36;;;;;;;22.70;5.97;;;;;;;;;;4980166;28;20457;-75
2022/01/01 12:22:04;;;;;;;38.83;6.18;;;;;;;;;;5004594;28;20034;-74
2022/01/01 12:24:37;;;;;;;26.33;5.78;;;;;;;;;;5006558;28;20479;-74
2022/01/01 12:27:14;;;;;;;25.58;5.50;;;;;;;;;;4980138;28;20030;-74
2022/01/01 12:29:40;;;;;;;20.92;5.85;;;;;;;;;;4984700;28;20043;-77
2022/01/01 12:32:08;;;;;;;23.77;5.78;;;;;;;;;;4999470;28;20483;-75
2022/01/01 12:34:34;;;;;;;31.05;6.72;;;;;;;;;;4994321;28;20430;-74
2022/01/01 12:37:04;;;;;;;26.65;5.90;;;;;;;;;;4986440;28;20032;-75
2022/01/01 12:39:29;;;;;;;32.35;6.28;;;;;;;;;;4989665;28;20042;-75
2022/01/01 12:41:56;;;;;;;38.27;7.10;;;;;;;;;;4979664;28;20407;-75
2022/01/01 12:44:31;;;;;;;37.10;6.07;;;;;;;;;;4970894;28;20034;-74
2022/01/01 12:47:01;;;;;;;47.67;9.15;;;;;;;;;;4971238;28;20046;-76
2022/01/01 12:49:27;;;;;;;36.55;8.05;;;;;;;;;;4968918;28;20085;-77
2022/01/01 12:51:56;;;;;;;29.10;6.17;;;;;;;;;;4997114;28;20436;-75
2022/01/01 12:54:22;;;;;;;39.50;8.13;;;;;;;;;;4986329;28;20026;-75
2022/01/01 12:56:48;;;;;;;42.20;6.63;;;;;;;;;;5003702;28;20050;-76
2022/01/01 12:59:15;;;;;;;41.80;7.25;;;;;;;;;;5004082;28;20069;-75
2022/01/01 13:01:46;;;;;;;40.03;7.47;;;;;;;;;;4981868;28;20047;-75
2022/01/01 13:04:13;;;;;;;35.80;6.50;;;;;;;;;;4971253;28;20483;-76
2022/01/01 13:06:39;;;;;;;27.73;6.22;;;;;;;;;;4977044;28;20049;-75
2022/01/01 13:09:17;;;;;;;38.28;7.03;;;;;;;;;;4988062;28;20026;-77
2022/01/01 13:11:45;;;;;;;39.58;6.20;;;;;;;;;;4986025;28;20040;-75
2022/01/01 13:14:11;;;;;;;33.25;7.82;;;;;;;;;;4988512;28;20034;-72
2022/01/01 13:16:37;;;;;;;36.58;9.20;;;;;;;;;;4985720;28;20039;-73
2022/01/01 13:19:04;;;;;;;33.60;6.43;;;;;;;;;;4987143;28;20054;-73
2022/01/01 13:21:30;;;;;;;31.90;6.25;;;;;;;;;;4994152;28;20043;-75
2022/01/01 13:23:55;;;;;;;29.20;5.87;;;;;;;;;;4971696;28;20109;-74
2022/01/01 13:26:21;;;;;;;22.50;6.10;;;;;;;;;;4975384;28;20043;-77
2022/01/01 13:28:47;;;;;;;33.63;7.10;;;;;;;;;;4986778;28;20065;-77
2022/01/01 13:31:13;;;;;;;45.97;8.00;;;;;;;;;;4993010;28;20054;-76
2022/01/01 13:33:41;;;;;;;35.78;7.63;;;;;;;;;;4983092;28;20041;-75
2022/01/01 13:36:07;;;;;;;29.63;6.93;;;;;;;;;;4980515;28;20039;-77
2022/01/01 13:38:33;;;;;;;46.00;8.23;;;;;;;;;;4977847;28;20113;-75
2022/01/01 13:41:03;;;;;;;28.48;8.48;;;;;;;;;;4969816;28;20452;-74
2022/01/01 13:43:33;;;;;;;33.50;7.25;;;;;;;;;;4976080;28;20038;-75
2022/01/01 13:46:14;;;;;;;25.40;5.55;;;;;;;;;;4988547;28;20447;-74
2022/01/01 13:48:48;;;;;;;44.05;7.85;;;;;;;;;;4975688;28;20042;-75
2022/01/01 13:51:17;;;;;;;38.50;7.43;;;;;;;;;;4976289;28;20043;-75
2022/01/01 13:53:43;;;;;;;49.95;8.30;;;;;;;;;;4975306;28;20094;-75
2022/01/01 13:56:14;;;;;;;44.85;7.97;;;;;;;;;;4976682;28;20042;-73
2022/01/01 13:58:43;;;;;;;39.17;7.47;;;;;;;;;;4977882;28;20395;-72
2022/01/01 14:01:08;;;;;;;30.30;5.97;;;;;;;;;;4978459;28;20062;-75
2022/01/01 14:03:34;;;;;;;43.40;8.73;;;;;;;;;;4977235;28;20054;-74
2022/01/01 14:06:01;;;;;;;40.23;7.73;;;;;;;;;;4975853;28;20031;-75
2022/01/01 14:08:27;;;;;;;36.03;6.93;;;;;;;;;;4978914;28;20026;-74
2022/01/01 14:10:54;;;;;;;36.60;7.35;;;;;;;;;;4976625;28;20053;-75
2022/01/01 14:13:32;;;;;;;39.85;6.78;;;;;;;;;;4992707;28;20035;-74
2022/01/01 14:15:57;;;;;;;;;;;;;;;;;;4991781;28;20033;-74
2022/01/01 14:18:31;;;;;;;36.72;7.28;;;;;;;;;;4993282;28;20678;-74
2022/01/01 14:20:58;;;;;;;39.75;7.25;;;;;;;;;;4991546;28;20154;-75
2022/01/01 14:23:33;;;;;;;47.88;8.63;;;;;;;;;;4977525;28;20467;-75
2022/01/01 14:26:04;;;;;;;34.08;7.40;;;;;;;;;;4993243;28;20467;-75
2022/01/01 14:28:30;;;;;;;38.72;6.75;;;;;;;;;;4991599;28;20053;-74
2022/01/01 14:30:58;;;;;;;41.53;7.17;;;;;;;;;;5008275;28;20034;-74
2022/01/01 14:33:24;;;;;;;28.33;7.88;;;;;;;;;;4989266;28;20023;-74
2022/01/01 14:35:50;;;;;;;;;;;;;;;;;;4988627;28;20101;-74